Aerial Acres, California
Current Conditions -  °F | °C
As of 2:58 PM on Friday 19 Dec 2014 (Local Time) from KEDW Reporting Station
Broken Clouds Broken Clouds  
Wind Chill: 53°   Ceiling: 21000
Heat Index: 53°   Visibility: 80mi
Dew Point: 41°   Wind: 6mph
Humidity: 64%   Direction: 180°S
Pressure: 30.13"   Gusts: NA
Location:  34.931°N, 117.867°W
Report Text: KEDW 192258Z 18005KT 80SM FEW140 BKN210 12/05 A3013 RMK AO2A SLP207 T01170051
Loading
Personal Weather Stations






























Interactive Weather Map New forecast layout! Learn more

10-Day Weather Forecast

Advertisements
Track Severe Weather on mobile